KBRD/BRD METAR and TAF weather

Enter ICAO airport designator
Station Type Date Time Source
KBRD METAR 2020/01/22 20:53 UTC NOAA

KBRD 222053Z AUTO 24003KT 4SM HZ OVC009 01/M02 A2979 RMK AO2 SLP105 T00111017 55006


Station Type Date Time Source
KBRD Decoded METAR 2020/01/22 20:53 UTC NOAA

BRAINERD-CROW WING CO AIRPORT , MN, United States (KBRD) 46-24N 94-08W 372M
Jan 22, 2020 - 03:53 PM EST / 2020.01.22 2053 UTC
Wind: from the WSW (240 degrees) at 3 MPH (3 KT):0
Visibility: 4 mile(s):0
Sky conditions: overcast
Weather: haze
Temperature: 34.0 F (1.1 C)
Dew Point: 28.9 F (-1.7 C)
Relative Humidity: 81%
Pressure (altimeter): 29.79 in. Hg (1008 hPa)
Pressure tendency: 0.02 inches (0.6 hPa) lower than three hours ago
ob: KBRD 222053Z AUTO 24003KT 4SM HZ OVC009 01/M02 A2979 RMK AO2 SLP105 T00111017 55006
cycle: 21

Station Type Date Time Source
KBRD TAF 2020/01/22 18:45 UTC NOAA

TAF KBRD 221742Z 2218/2318 20005KT 2SM BR OVC004
FM222300 VRB04KT 1 1/2SM BR OVC004
FM230500 00000KT 1SM BR OVC003
FM231600 05005KT 5SM BR OVC006

Example: see airport list